<?xml version="1.0" encoding="UTF-8" standalone="no" ?>
<gpx xmlns="http://www.topografix.com/GPX/1/1" xmlns:xsi="http://www.w3.org/2001/XMLSchema-instance" xsi:schemaLocation="http://www.topografix.com/GPX/1/1 http://www.topografix.com/GPX/1/1/gpx.xsd" version="1.1" creator="VisuGPX - https://www.visugpx.com">
  <metadata>
    <name>12341430-givry mellecey</name>
  </metadata>
  <trk>
    <name><![CDATA[12341430-givry mellecey]]></name>
    <trkseg>
      <trkpt lat="46.78151" lon="4.73788">
        <ele>226</ele>
        <time>2020-12-12T06:27:16Z</time>
      </trkpt>
      <trkpt lat="46.782" lon="4.73696">
        <ele>228</ele>
        <time>2020-12-12T06:29:03Z</time>
      </trkpt>
      <trkpt lat="46.78228" lon="4.73637">
        <ele>231</ele>
        <time>2020-12-12T06:30:08Z</time>
      </trkpt>
      <trkpt lat="46.78272" lon="4.7346">
        <ele>239</ele>
        <time>2020-12-12T06:33:00Z</time>
      </trkpt>
      <trkpt lat="46.78228" lon="4.73421">
        <ele>239</ele>
        <time>2020-12-12T06:34:09Z</time>
      </trkpt>
      <trkpt lat="46.78262" lon="4.73287">
        <ele>248</ele>
        <time>2020-12-12T06:36:19Z</time>
      </trkpt>
      <trkpt lat="46.78277" lon="4.7314">
        <ele>259</ele>
        <time>2020-12-12T06:38:35Z</time>
      </trkpt>
      <trkpt lat="46.78266" lon="4.73085">
        <ele>263</ele>
        <time>2020-12-12T06:39:28Z</time>
      </trkpt>
      <trkpt lat="46.7827" lon="4.73068">
        <ele>265</ele>
        <time>2020-12-12T06:39:44Z</time>
      </trkpt>
      <trkpt lat="46.78275" lon="4.7302">
        <ele>271</ele>
        <time>2020-12-12T06:40:28Z</time>
      </trkpt>
      <trkpt lat="46.7827" lon="4.72987">
        <ele>275</ele>
        <time>2020-12-12T06:40:59Z</time>
      </trkpt>
      <trkpt lat="46.78255" lon="4.72964">
        <ele>279</ele>
        <time>2020-12-12T06:41:28Z</time>
      </trkpt>
      <trkpt lat="46.78255" lon="4.72645">
        <ele>319</ele>
        <time>2020-12-12T06:46:20Z</time>
      </trkpt>
      <trkpt lat="46.78264" lon="4.72424">
        <ele>333</ele>
        <time>2020-12-12T06:49:42Z</time>
      </trkpt>
      <trkpt lat="46.78247" lon="4.72336">
        <ele>336</ele>
        <time>2020-12-12T06:51:06Z</time>
      </trkpt>
      <trkpt lat="46.7824" lon="4.72164">
        <ele>344</ele>
        <time>2020-12-12T06:53:43Z</time>
      </trkpt>
      <trkpt lat="46.78253" lon="4.71916">
        <ele>359</ele>
        <time>2020-12-12T06:57:30Z</time>
      </trkpt>
      <trkpt lat="46.78241" lon="4.71876">
        <ele>360</ele>
        <time>2020-12-12T06:58:10Z</time>
      </trkpt>
      <trkpt lat="46.7819" lon="4.71841">
        <ele>355</ele>
        <time>2020-12-12T06:59:26Z</time>
      </trkpt>
      <trkpt lat="46.7817" lon="4.71819">
        <ele>352</ele>
        <time>2020-12-12T06:59:59Z</time>
      </trkpt>
      <trkpt lat="46.78147" lon="4.71774">
        <ele>348</ele>
        <time>2020-12-12T07:00:50Z</time>
      </trkpt>
      <trkpt lat="46.78135" lon="4.717">
        <ele>346</ele>
        <time>2020-12-12T07:02:00Z</time>
      </trkpt>
      <trkpt lat="46.78122" lon="4.71663">
        <ele>345</ele>
        <time>2020-12-12T07:02:38Z</time>
      </trkpt>
      <trkpt lat="46.78092" lon="4.71553">
        <ele>349</ele>
        <time>2020-12-12T07:04:26Z</time>
      </trkpt>
      <trkpt lat="46.78059" lon="4.71443">
        <ele>351</ele>
        <time>2020-12-12T07:06:16Z</time>
      </trkpt>
      <trkpt lat="46.78051" lon="4.71363">
        <ele>349</ele>
        <time>2020-12-12T07:07:30Z</time>
      </trkpt>
      <trkpt lat="46.78038" lon="4.713">
        <ele>345</ele>
        <time>2020-12-12T07:08:30Z</time>
      </trkpt>
      <trkpt lat="46.78034" lon="4.71242">
        <ele>345</ele>
        <time>2020-12-12T07:09:23Z</time>
      </trkpt>
      <trkpt lat="46.78027" lon="4.71163">
        <ele>343</ele>
        <time>2020-12-12T07:10:36Z</time>
      </trkpt>
      <trkpt lat="46.78038" lon="4.71047">
        <ele>344</ele>
        <time>2020-12-12T07:12:23Z</time>
      </trkpt>
      <trkpt lat="46.78061" lon="4.70976">
        <ele>348</ele>
        <time>2020-12-12T07:13:35Z</time>
      </trkpt>
      <trkpt lat="46.78074" lon="4.70905">
        <ele>350</ele>
        <time>2020-12-12T07:14:42Z</time>
      </trkpt>
      <trkpt lat="46.7807" lon="4.70821">
        <ele>355</ele>
        <time>2020-12-12T07:15:59Z</time>
      </trkpt>
      <trkpt lat="46.78084" lon="4.70792">
        <ele>361</ele>
        <time>2020-12-12T07:16:31Z</time>
      </trkpt>
      <trkpt lat="46.78089" lon="4.7078">
        <ele>363</ele>
        <time>2020-12-12T07:16:44Z</time>
      </trkpt>
      <trkpt lat="46.78078" lon="4.70764">
        <ele>363</ele>
        <time>2020-12-12T07:17:05Z</time>
      </trkpt>
      <trkpt lat="46.78033" lon="4.70715">
        <ele>363</ele>
        <time>2020-12-12T07:18:20Z</time>
      </trkpt>
      <trkpt lat="46.78059" lon="4.70645">
        <ele>373</ele>
        <time>2020-12-12T07:19:32Z</time>
      </trkpt>
      <trkpt lat="46.78101" lon="4.70636">
        <ele>379</ele>
        <time>2020-12-12T07:20:29Z</time>
      </trkpt>
      <trkpt lat="46.78158" lon="4.70638">
        <ele>387</ele>
        <time>2020-12-12T07:21:45Z</time>
      </trkpt>
      <trkpt lat="46.78191" lon="4.70623">
        <ele>394</ele>
        <time>2020-12-12T07:22:31Z</time>
      </trkpt>
      <trkpt lat="46.78206" lon="4.70632">
        <ele>396</ele>
        <time>2020-12-12T07:22:53Z</time>
      </trkpt>
      <trkpt lat="46.78223" lon="4.70662">
        <ele>396</ele>
        <time>2020-12-12T07:23:28Z</time>
      </trkpt>
      <trkpt lat="46.78261" lon="4.70677">
        <ele>401</ele>
        <time>2020-12-12T07:24:21Z</time>
      </trkpt>
      <trkpt lat="46.78284" lon="4.70697">
        <ele>402</ele>
        <time>2020-12-12T07:24:57Z</time>
      </trkpt>
      <trkpt lat="46.78316" lon="4.70739">
        <ele>405</ele>
        <time>2020-12-12T07:25:54Z</time>
      </trkpt>
      <trkpt lat="46.78401" lon="4.7075">
        <ele>417</ele>
        <time>2020-12-12T07:27:48Z</time>
      </trkpt>
      <trkpt lat="46.78437" lon="4.70745">
        <ele>422</ele>
        <time>2020-12-12T07:28:36Z</time>
      </trkpt>
      <trkpt lat="46.78472" lon="4.70728">
        <ele>426</ele>
        <time>2020-12-12T07:29:25Z</time>
      </trkpt>
      <trkpt lat="46.78515" lon="4.70713">
        <ele>431</ele>
        <time>2020-12-12T07:30:24Z</time>
      </trkpt>
      <trkpt lat="46.78638" lon="4.70685">
        <ele>434</ele>
        <time>2020-12-12T07:33:11Z</time>
      </trkpt>
      <trkpt lat="46.78757" lon="4.70727">
        <ele>430</ele>
        <time>2020-12-12T07:35:54Z</time>
      </trkpt>
      <trkpt lat="46.78788" lon="4.70702">
        <ele>427</ele>
        <time>2020-12-12T07:36:41Z</time>
      </trkpt>
      <trkpt lat="46.78839" lon="4.7066">
        <ele>425</ele>
        <time>2020-12-12T07:37:59Z</time>
      </trkpt>
      <trkpt lat="46.789" lon="4.7062">
        <ele>421</ele>
        <time>2020-12-12T07:39:29Z</time>
      </trkpt>
      <trkpt lat="46.78956" lon="4.70606">
        <ele>417</ele>
        <time>2020-12-12T07:40:44Z</time>
      </trkpt>
      <trkpt lat="46.7899" lon="4.7061">
        <ele>416</ele>
        <time>2020-12-12T07:41:30Z</time>
      </trkpt>
      <trkpt lat="46.79006" lon="4.70571">
        <ele>414</ele>
        <time>2020-12-12T07:42:11Z</time>
      </trkpt>
      <trkpt lat="46.79009" lon="4.70541">
        <ele>411</ele>
        <time>2020-12-12T07:42:39Z</time>
      </trkpt>
      <trkpt lat="46.79005" lon="4.70452">
        <ele>404</ele>
        <time>2020-12-12T07:44:01Z</time>
      </trkpt>
      <trkpt lat="46.78986" lon="4.70336">
        <ele>394</ele>
        <time>2020-12-12T07:45:50Z</time>
      </trkpt>
      <trkpt lat="46.7902" lon="4.70375">
        <ele>395</ele>
        <time>2020-12-12T07:46:47Z</time>
      </trkpt>
      <trkpt lat="46.79063" lon="4.70367">
        <ele>389</ele>
        <time>2020-12-12T07:47:45Z</time>
      </trkpt>
      <trkpt lat="46.7909" lon="4.70347">
        <ele>382</ele>
        <time>2020-12-12T07:48:26Z</time>
      </trkpt>
      <trkpt lat="46.79133" lon="4.70409">
        <ele>386</ele>
        <time>2020-12-12T07:49:46Z</time>
      </trkpt>
      <trkpt lat="46.79214" lon="4.70433">
        <ele>379</ele>
        <time>2020-12-12T07:51:36Z</time>
      </trkpt>
      <trkpt lat="46.79208" lon="4.70604">
        <ele>397</ele>
        <time>2020-12-12T07:54:13Z</time>
      </trkpt>
      <trkpt lat="46.79217" lon="4.70649">
        <ele>401</ele>
        <time>2020-12-12T07:54:56Z</time>
      </trkpt>
      <trkpt lat="46.79207" lon="4.70714">
        <ele>404</ele>
        <time>2020-12-12T07:55:57Z</time>
      </trkpt>
      <trkpt lat="46.79329" lon="4.70779">
        <ele>396</ele>
        <time>2020-12-12T07:58:50Z</time>
      </trkpt>
      <trkpt lat="46.79461" lon="4.70837">
        <ele>385</ele>
        <time>2020-12-12T08:01:54Z</time>
      </trkpt>
      <trkpt lat="46.79531" lon="4.70865">
        <ele>379</ele>
        <time>2020-12-12T08:03:31Z</time>
      </trkpt>
      <trkpt lat="46.79555" lon="4.7089">
        <ele>378</ele>
        <time>2020-12-12T08:04:10Z</time>
      </trkpt>
      <trkpt lat="46.79594" lon="4.70909">
        <ele>377</ele>
        <time>2020-12-12T08:05:05Z</time>
      </trkpt>
      <trkpt lat="46.79617" lon="4.70893">
        <ele>375</ele>
        <time>2020-12-12T08:05:39Z</time>
      </trkpt>
      <trkpt lat="46.79643" lon="4.70886">
        <ele>374</ele>
        <time>2020-12-12T08:06:14Z</time>
      </trkpt>
      <trkpt lat="46.79702" lon="4.70863">
        <ele>365</ele>
        <time>2020-12-12T08:07:36Z</time>
      </trkpt>
      <trkpt lat="46.79781" lon="4.70889">
        <ele>354</ele>
        <time>2020-12-12T08:09:24Z</time>
      </trkpt>
      <trkpt lat="46.79833" lon="4.70921">
        <ele>348</ele>
        <time>2020-12-12T08:10:39Z</time>
      </trkpt>
      <trkpt lat="46.79868" lon="4.70953">
        <ele>345</ele>
        <time>2020-12-12T08:11:34Z</time>
      </trkpt>
      <trkpt lat="46.79956" lon="4.70986">
        <ele>336</ele>
        <time>2020-12-12T08:13:35Z</time>
      </trkpt>
      <trkpt lat="46.80009" lon="4.70983">
        <ele>328</ele>
        <time>2020-12-12T08:14:46Z</time>
      </trkpt>
      <trkpt lat="46.80091" lon="4.70996">
        <ele>315</ele>
        <time>2020-12-12T08:16:36Z</time>
      </trkpt>
      <trkpt lat="46.8015" lon="4.71024">
        <ele>308</ele>
        <time>2020-12-12T08:17:59Z</time>
      </trkpt>
      <trkpt lat="46.802" lon="4.71049">
        <ele>303</ele>
        <time>2020-12-12T08:19:09Z</time>
      </trkpt>
      <trkpt lat="46.80311" lon="4.71092">
        <ele>290</ele>
        <time>2020-12-12T08:21:43Z</time>
      </trkpt>
      <trkpt lat="46.8033" lon="4.7108">
        <ele>285</ele>
        <time>2020-12-12T08:22:10Z</time>
      </trkpt>
      <trkpt lat="46.80333" lon="4.71131">
        <ele>290</ele>
        <time>2020-12-12T08:22:57Z</time>
      </trkpt>
      <trkpt lat="46.80356" lon="4.71143">
        <ele>287</ele>
        <time>2020-12-12T08:23:30Z</time>
      </trkpt>
      <trkpt lat="46.80404" lon="4.71228">
        <ele>290</ele>
        <time>2020-12-12T08:25:10Z</time>
      </trkpt>
      <trkpt lat="46.80437" lon="4.71242">
        <ele>286</ele>
        <time>2020-12-12T08:25:56Z</time>
      </trkpt>
      <trkpt lat="46.80446" lon="4.71271">
        <ele>286</ele>
        <time>2020-12-12T08:26:25Z</time>
      </trkpt>
      <trkpt lat="46.80517" lon="4.71329">
        <ele>282</ele>
        <time>2020-12-12T08:28:14Z</time>
      </trkpt>
      <trkpt lat="46.80617" lon="4.71388">
        <ele>270</ele>
        <time>2020-12-12T08:30:38Z</time>
      </trkpt>
      <trkpt lat="46.80669" lon="4.71424">
        <ele>269</ele>
        <time>2020-12-12T08:31:55Z</time>
      </trkpt>
      <trkpt lat="46.80705" lon="4.71437">
        <ele>264</ele>
        <time>2020-12-12T08:32:44Z</time>
      </trkpt>
      <trkpt lat="46.80727" lon="4.7146">
        <ele>262</ele>
        <time>2020-12-12T08:33:20Z</time>
      </trkpt>
      <trkpt lat="46.80756" lon="4.71472">
        <ele>259</ele>
        <time>2020-12-12T08:34:00Z</time>
      </trkpt>
      <trkpt lat="46.80806" lon="4.71507">
        <ele>256</ele>
        <time>2020-12-12T08:35:14Z</time>
      </trkpt>
      <trkpt lat="46.80845" lon="4.71595">
        <ele>250</ele>
        <time>2020-12-12T08:36:50Z</time>
      </trkpt>
      <trkpt lat="46.80904" lon="4.7162">
        <ele>245</ele>
        <time>2020-12-12T08:38:12Z</time>
      </trkpt>
      <trkpt lat="46.80939" lon="4.71644">
        <ele>240</ele>
        <time>2020-12-12T08:39:04Z</time>
      </trkpt>
      <trkpt lat="46.80964" lon="4.71698">
        <ele>235</ele>
        <time>2020-12-12T08:40:03Z</time>
      </trkpt>
      <trkpt lat="46.81004" lon="4.71852">
        <ele>225</ele>
        <time>2020-12-12T08:42:34Z</time>
      </trkpt>
      <trkpt lat="46.81018" lon="4.71933">
        <ele>223</ele>
        <time>2020-12-12T08:43:50Z</time>
      </trkpt>
      <trkpt lat="46.81074" lon="4.71927">
        <ele>219</ele>
        <time>2020-12-12T08:45:05Z</time>
      </trkpt>
      <trkpt lat="46.81087" lon="4.72037">
        <ele>219</ele>
        <time>2020-12-12T08:46:47Z</time>
      </trkpt>
      <trkpt lat="46.81098" lon="4.72052">
        <ele>219</ele>
        <time>2020-12-12T08:47:07Z</time>
      </trkpt>
      <trkpt lat="46.81102" lon="4.72148">
        <ele>220</ele>
        <time>2020-12-12T08:48:35Z</time>
      </trkpt>
      <trkpt lat="46.81105" lon="4.72229">
        <ele>219</ele>
        <time>2020-12-12T08:49:49Z</time>
      </trkpt>
      <trkpt lat="46.81063" lon="4.72416">
        <ele>216</ele>
        <time>2020-12-12T08:52:49Z</time>
      </trkpt>
      <trkpt lat="46.8101" lon="4.72453">
        <ele>219</ele>
        <time>2020-12-12T08:54:07Z</time>
      </trkpt>
      <trkpt lat="46.80989" lon="4.72457">
        <ele>220</ele>
        <time>2020-12-12T08:54:35Z</time>
      </trkpt>
      <trkpt lat="46.80982" lon="4.72476">
        <ele>220</ele>
        <time>2020-12-12T08:54:55Z</time>
      </trkpt>
      <trkpt lat="46.8098" lon="4.72551">
        <ele>218</ele>
        <time>2020-12-12T08:56:04Z</time>
      </trkpt>
      <trkpt lat="46.8098" lon="4.72592">
        <ele>218</ele>
        <time>2020-12-12T08:56:41Z</time>
      </trkpt>
      <trkpt lat="46.80992" lon="4.72638">
        <ele>217</ele>
        <time>2020-12-12T08:57:26Z</time>
      </trkpt>
      <trkpt lat="46.80993" lon="4.7266">
        <ele>216</ele>
        <time>2020-12-12T08:57:46Z</time>
      </trkpt>
      <trkpt lat="46.80992" lon="4.72688">
        <ele>216</ele>
        <time>2020-12-12T08:58:12Z</time>
      </trkpt>
      <trkpt lat="46.8099" lon="4.72709">
        <ele>216</ele>
        <time>2020-12-12T08:58:31Z</time>
      </trkpt>
      <trkpt lat="46.8099" lon="4.72759">
        <ele>217</ele>
        <time>2020-12-12T08:59:17Z</time>
      </trkpt>
      <trkpt lat="46.80996" lon="4.72792">
        <ele>218</ele>
        <time>2020-12-12T08:59:48Z</time>
      </trkpt>
      <trkpt lat="46.81022" lon="4.72853">
        <ele>220</ele>
        <time>2020-12-12T09:00:54Z</time>
      </trkpt>
      <trkpt lat="46.81022" lon="4.72866">
        <ele>221</ele>
        <time>2020-12-12T09:01:05Z</time>
      </trkpt>
      <trkpt lat="46.81026" lon="4.72898">
        <ele>224</ele>
        <time>2020-12-12T09:01:35Z</time>
      </trkpt>
      <trkpt lat="46.8101" lon="4.72925">
        <ele>228</ele>
        <time>2020-12-12T09:02:08Z</time>
      </trkpt>
      <trkpt lat="46.80987" lon="4.72942">
        <ele>231</ele>
        <time>2020-12-12T09:02:42Z</time>
      </trkpt>
      <trkpt lat="46.8097" lon="4.7296">
        <ele>232</ele>
        <time>2020-12-12T09:03:10Z</time>
      </trkpt>
      <trkpt lat="46.80967" lon="4.72972">
        <ele>233</ele>
        <time>2020-12-12T09:03:22Z</time>
      </trkpt>
      <trkpt lat="46.80961" lon="4.7298">
        <ele>234</ele>
        <time>2020-12-12T09:03:33Z</time>
      </trkpt>
      <trkpt lat="46.80938" lon="4.73037">
        <ele>236</ele>
        <time>2020-12-12T09:04:33Z</time>
      </trkpt>
      <trkpt lat="46.80906" lon="4.73072">
        <ele>237</ele>
        <time>2020-12-12T09:05:26Z</time>
      </trkpt>
      <trkpt lat="46.80885" lon="4.73093">
        <ele>236</ele>
        <time>2020-12-12T09:06:00Z</time>
      </trkpt>
      <trkpt lat="46.80867" lon="4.73123">
        <ele>234</ele>
        <time>2020-12-12T09:06:37Z</time>
      </trkpt>
      <trkpt lat="46.8085" lon="4.7316">
        <ele>231</ele>
        <time>2020-12-12T09:07:18Z</time>
      </trkpt>
      <trkpt lat="46.80811" lon="4.73184">
        <ele>227</ele>
        <time>2020-12-12T09:08:14Z</time>
      </trkpt>
      <trkpt lat="46.80746" lon="4.73181">
        <ele>220</ele>
        <time>2020-12-12T09:09:41Z</time>
      </trkpt>
      <trkpt lat="46.80697" lon="4.73196">
        <ele>219</ele>
        <time>2020-12-12T09:10:48Z</time>
      </trkpt>
      <trkpt lat="46.80633" lon="4.73241">
        <ele>222</ele>
        <time>2020-12-12T09:12:22Z</time>
      </trkpt>
      <trkpt lat="46.80596" lon="4.73307">
        <ele>225</ele>
        <time>2020-12-12T09:13:40Z</time>
      </trkpt>
      <trkpt lat="46.80541" lon="4.73417">
        <ele>229</ele>
        <time>2020-12-12T09:15:45Z</time>
      </trkpt>
      <trkpt lat="46.80532" lon="4.73446">
        <ele>229</ele>
        <time>2020-12-12T09:16:14Z</time>
      </trkpt>
      <trkpt lat="46.80509" lon="4.73474">
        <ele>230</ele>
        <time>2020-12-12T09:16:54Z</time>
      </trkpt>
      <trkpt lat="46.80489" lon="4.73473">
        <ele>230</ele>
        <time>2020-12-12T09:17:20Z</time>
      </trkpt>
      <trkpt lat="46.80448" lon="4.73453">
        <ele>230</ele>
        <time>2020-12-12T09:18:18Z</time>
      </trkpt>
      <trkpt lat="46.80397" lon="4.7341">
        <ele>230</ele>
        <time>2020-12-12T09:19:37Z</time>
      </trkpt>
      <trkpt lat="46.8036" lon="4.73345">
        <ele>230</ele>
        <time>2020-12-12T09:20:54Z</time>
      </trkpt>
      <trkpt lat="46.80323" lon="4.73298">
        <ele>230</ele>
        <time>2020-12-12T09:21:59Z</time>
      </trkpt>
      <trkpt lat="46.80272" lon="4.73359">
        <ele>230</ele>
        <time>2020-12-12T09:23:27Z</time>
      </trkpt>
      <trkpt lat="46.80215" lon="4.7344">
        <ele>239</ele>
        <time>2020-12-12T09:25:13Z</time>
      </trkpt>
      <trkpt lat="46.80148" lon="4.73497">
        <ele>252</ele>
        <time>2020-12-12T09:26:57Z</time>
      </trkpt>
      <trkpt lat="46.8" lon="4.73586">
        <ele>276</ele>
        <time>2020-12-12T09:30:30Z</time>
      </trkpt>
      <trkpt lat="46.79978" lon="4.73576">
        <ele>278</ele>
        <time>2020-12-12T09:31:01Z</time>
      </trkpt>
      <trkpt lat="46.7994" lon="4.73582">
        <ele>283</ele>
        <time>2020-12-12T09:31:52Z</time>
      </trkpt>
      <trkpt lat="46.79921" lon="4.7356">
        <ele>286</ele>
        <time>2020-12-12T09:32:25Z</time>
      </trkpt>
      <trkpt lat="46.79902" lon="4.73518">
        <ele>286</ele>
        <time>2020-12-12T09:33:11Z</time>
      </trkpt>
      <trkpt lat="46.79873" lon="4.73473">
        <ele>287</ele>
        <time>2020-12-12T09:34:07Z</time>
      </trkpt>
      <trkpt lat="46.79828" lon="4.73431">
        <ele>292</ele>
        <time>2020-12-12T09:35:18Z</time>
      </trkpt>
      <trkpt lat="46.7978" lon="4.73395">
        <ele>294</ele>
        <time>2020-12-12T09:36:30Z</time>
      </trkpt>
      <trkpt lat="46.7972" lon="4.7337">
        <ele>299</ele>
        <time>2020-12-12T09:37:54Z</time>
      </trkpt>
      <trkpt lat="46.79653" lon="4.73342">
        <ele>308</ele>
        <time>2020-12-12T09:39:27Z</time>
      </trkpt>
      <trkpt lat="46.79594" lon="4.73322">
        <ele>315</ele>
        <time>2020-12-12T09:40:47Z</time>
      </trkpt>
      <trkpt lat="46.79588" lon="4.73319">
        <ele>316</ele>
        <time>2020-12-12T09:40:56Z</time>
      </trkpt>
      <trkpt lat="46.79534" lon="4.73344">
        <ele>320</ele>
        <time>2020-12-12T09:42:11Z</time>
      </trkpt>
      <trkpt lat="46.79499" lon="4.73344">
        <ele>326</ele>
        <time>2020-12-12T09:42:58Z</time>
      </trkpt>
      <trkpt lat="46.7948" lon="4.73431">
        <ele>324</ele>
        <time>2020-12-12T09:44:22Z</time>
      </trkpt>
      <trkpt lat="46.7947" lon="4.73496">
        <ele>323</ele>
        <time>2020-12-12T09:45:22Z</time>
      </trkpt>
      <trkpt lat="46.79484" lon="4.73569">
        <ele>324</ele>
        <time>2020-12-12T09:46:32Z</time>
      </trkpt>
      <trkpt lat="46.79464" lon="4.73718">
        <ele>325</ele>
        <time>2020-12-12T09:48:50Z</time>
      </trkpt>
      <trkpt lat="46.79439" lon="4.73798">
        <ele>324</ele>
        <time>2020-12-12T09:50:11Z</time>
      </trkpt>
      <trkpt lat="46.7943" lon="4.73859">
        <ele>324</ele>
        <time>2020-12-12T09:51:08Z</time>
      </trkpt>
      <trkpt lat="46.7943" lon="4.73901">
        <ele>321</ele>
        <time>2020-12-12T09:51:46Z</time>
      </trkpt>
      <trkpt lat="46.7938" lon="4.73893">
        <ele>322</ele>
        <time>2020-12-12T09:52:53Z</time>
      </trkpt>
      <trkpt lat="46.79339" lon="4.73926">
        <ele>321</ele>
        <time>2020-12-12T09:53:56Z</time>
      </trkpt>
      <trkpt lat="46.79311" lon="4.74013">
        <ele>317</ele>
        <time>2020-12-12T09:55:24Z</time>
      </trkpt>
      <trkpt lat="46.79282" lon="4.74097">
        <ele>313</ele>
        <time>2020-12-12T09:56:50Z</time>
      </trkpt>
      <trkpt lat="46.79262" lon="4.74129">
        <ele>310</ele>
        <time>2020-12-12T09:57:29Z</time>
      </trkpt>
      <trkpt lat="46.79203" lon="4.74164">
        <ele>306</ele>
        <time>2020-12-12T09:58:54Z</time>
      </trkpt>
      <trkpt lat="46.79141" lon="4.74201">
        <ele>300</ele>
        <time>2020-12-12T10:00:23Z</time>
      </trkpt>
      <trkpt lat="46.79109" lon="4.74217">
        <ele>295</ele>
        <time>2020-12-12T10:01:09Z</time>
      </trkpt>
      <trkpt lat="46.7905" lon="4.74254">
        <ele>285</ele>
        <time>2020-12-12T10:02:34Z</time>
      </trkpt>
      <trkpt lat="46.79003" lon="4.74283">
        <ele>276</ele>
        <time>2020-12-12T10:03:42Z</time>
      </trkpt>
      <trkpt lat="46.78964" lon="4.74304">
        <ele>268</ele>
        <time>2020-12-12T10:04:38Z</time>
      </trkpt>
      <trkpt lat="46.78945" lon="4.7432">
        <ele>264</ele>
        <time>2020-12-12T10:05:07Z</time>
      </trkpt>
      <trkpt lat="46.7895" lon="4.74365">
        <ele>262</ele>
        <time>2020-12-12T10:05:49Z</time>
      </trkpt>
      <trkpt lat="46.78946" lon="4.74383">
        <ele>260</ele>
        <time>2020-12-12T10:06:06Z</time>
      </trkpt>
      <trkpt lat="46.78924" lon="4.74384">
        <ele>257</ele>
        <time>2020-12-12T10:06:35Z</time>
      </trkpt>
      <trkpt lat="46.78923" lon="4.74415">
        <ele>255</ele>
        <time>2020-12-12T10:07:04Z</time>
      </trkpt>
      <trkpt lat="46.78885" lon="4.74429">
        <ele>250</ele>
        <time>2020-12-12T10:07:56Z</time>
      </trkpt>
      <trkpt lat="46.78874" lon="4.74442">
        <ele>248</ele>
        <time>2020-12-12T10:08:15Z</time>
      </trkpt>
      <trkpt lat="46.78865" lon="4.7445">
        <ele>247</ele>
        <time>2020-12-12T10:08:29Z</time>
      </trkpt>
      <trkpt lat="46.78853" lon="4.74429">
        <ele>247</ele>
        <time>2020-12-12T10:08:54Z</time>
      </trkpt>
      <trkpt lat="46.78805" lon="4.74407">
        <ele>243</ele>
        <time>2020-12-12T10:10:01Z</time>
      </trkpt>
      <trkpt lat="46.78773" lon="4.74378">
        <ele>239</ele>
        <time>2020-12-12T10:10:51Z</time>
      </trkpt>
      <trkpt lat="46.78739" lon="4.74335">
        <ele>236</ele>
        <time>2020-12-12T10:11:51Z</time>
      </trkpt>
      <trkpt lat="46.78711" lon="4.74265">
        <ele>233</ele>
        <time>2020-12-12T10:13:05Z</time>
      </trkpt>
      <trkpt lat="46.78686" lon="4.7416">
        <ele>230</ele>
        <time>2020-12-12T10:14:47Z</time>
      </trkpt>
      <trkpt lat="46.78632" lon="4.74078">
        <ele>230</ele>
        <time>2020-12-12T10:16:31Z</time>
      </trkpt>
      <trkpt lat="46.7862" lon="4.74042">
        <ele>230</ele>
        <time>2020-12-12T10:17:08Z</time>
      </trkpt>
      <trkpt lat="46.78608" lon="4.73942">
        <ele>232</ele>
        <time>2020-12-12T10:18:40Z</time>
      </trkpt>
      <trkpt lat="46.786" lon="4.73896">
        <ele>233</ele>
        <time>2020-12-12T10:19:24Z</time>
      </trkpt>
      <trkpt lat="46.78582" lon="4.73846">
        <ele>232</ele>
        <time>2020-12-12T10:20:15Z</time>
      </trkpt>
      <trkpt lat="46.78565" lon="4.73812">
        <ele>231</ele>
        <time>2020-12-12T10:20:54Z</time>
      </trkpt>
      <trkpt lat="46.78552" lon="4.73797">
        <ele>231</ele>
        <time>2020-12-12T10:21:16Z</time>
      </trkpt>
      <trkpt lat="46.78538" lon="4.73815">
        <ele>230</ele>
        <time>2020-12-12T10:21:41Z</time>
      </trkpt>
      <trkpt lat="46.78473" lon="4.73793">
        <ele>229</ele>
        <time>2020-12-12T10:23:10Z</time>
      </trkpt>
      <trkpt lat="46.78466" lon="4.73768">
        <ele>229</ele>
        <time>2020-12-12T10:23:35Z</time>
      </trkpt>
      <trkpt lat="46.78426" lon="4.73722">
        <ele>229</ele>
        <time>2020-12-12T10:24:42Z</time>
      </trkpt>
      <trkpt lat="46.7842" lon="4.73671">
        <ele>231</ele>
        <time>2020-12-12T10:25:30Z</time>
      </trkpt>
      <trkpt lat="46.78382" lon="4.73584">
        <ele>234</ele>
        <time>2020-12-12T10:27:04Z</time>
      </trkpt>
      <trkpt lat="46.78276" lon="4.73465">
        <ele>239</ele>
        <time>2020-12-12T10:30:02Z</time>
      </trkpt>
      <trkpt lat="46.78232" lon="4.73619">
        <ele>232</ele>
        <time>2020-12-12T10:32:35Z</time>
      </trkpt>
      <trkpt lat="46.78153" lon="4.73786">
        <ele>226</ele>
        <time>2020-12-12T10:35:40Z</time>
      </trkpt>
    </trkseg>
  </trk>
</gpx>